Weather at Gifu Airport

Public forecast

Using degrees Celsius for public forecast. Weather courtesy of forecast.io.

Current aviation weather report (METAR) for Gifu Airport

2024/07/14 07:48 (retrieved 37 minutes ago)

RJNG 140748Z 36004KT 320V030 9999 -SHRA FEW008 SCT030CB BKN100 27/25 Q1013 RMK 1ST008 3CB030 7AC100 A2992 CB 10KM S MOV NE

Closest aviation forecast (TAF) to Gifu Airport

Closest forecast is Chubu Centrair International Airport, 32.3 nm (59.9 km) S.

2024/07/14 06:30 (retrieved 2 hours ago)

TAF RJGG 140505Z 1406/1512 14004KT 9999 FEW010 SCT030 TEMPO 1406/1409 3000 TSRA BR FEW004 BKN008 FEW020CB TEMPO 1503/1509 TS FEW010 BKN020 FEW020CB BECMG 1506/1509 30006KT